createdAt,value
2023-02-11T00:01:35.072Z,8.40
2023-02-11T00:04:13.306Z,14.20
2023-02-11T00:06:48.112Z,7.50
2023-02-11T00:09:23.527Z,14.07
2023-02-11T00:11:58.844Z,14.82
2023-02-11T00:14:33.700Z,11.05
2023-02-11T00:17:09.635Z,11.77
2023-02-11T00:19:47.313Z,12.23
2023-02-11T00:22:22.465Z,15.63
2023-02-11T00:24:58.904Z,9.38
2023-02-11T00:27:33.570Z,15.15
2023-02-11T00:30:09.258Z,15.20
2023-02-11T00:32:46.723Z,12.07
2023-02-11T00:35:23.905Z,14.00
2023-02-11T00:37:58.898Z,12.68
2023-02-11T00:40:34.360Z,13.80
2023-02-11T00:43:10.750Z,11.40
2023-02-11T00:45:45.641Z,10.25
2023-02-11T00:48:20.963Z,10.10
2023-02-11T00:50:58.158Z,11.48
2023-02-11T00:53:33.273Z,7.97
2023-02-11T00:56:08.510Z,7.18
2023-02-11T00:58:43.469Z,9.98
2023-02-11T01:01:19.157Z,6.47
2023-02-11T01:03:55.030Z,11.63
2023-02-11T01:06:32.470Z,6.78
2023-02-11T01:09:07.617Z,12.52
2023-02-11T01:11:45.211Z,9.93
2023-02-11T01:14:20.265Z,6.80
2023-02-11T01:16:57.564Z,7.10
2023-02-11T01:19:33.016Z,9.95
2023-02-11T01:22:10.368Z,8.10
2023-02-11T01:24:45.365Z,11.00
2023-02-11T01:27:20.253Z,9.10
2023-02-11T01:29:55.088Z,9.70
2023-02-11T01:32:30.445Z,8.38
2023-02-11T01:35:07.250Z,9.13
2023-02-11T01:37:45.668Z,8.00
2023-02-11T01:40:21.446Z,12.10
2023-02-11T01:43:02.482Z,9.98
2023-02-11T01:46:04.498Z,8.40
2023-02-11T01:48:41.517Z,11.32
2023-02-11T01:51:18.849Z,10.15
2023-02-11T01:54:13.554Z,8.50
2023-02-11T01:57:06.963Z,6.05
2023-02-11T01:59:44.939Z,7.07
2023-02-11T02:02:21.444Z,8.07
2023-02-11T02:04:58.088Z,7.10
2023-02-11T02:07:38.790Z,9.93
2023-02-11T02:10:19.388Z,9.18
2023-02-11T02:12:54.729Z,8.43
2023-02-11T02:15:31.562Z,9.25
2023-02-11T02:18:09.460Z,6.90
2023-02-11T02:20:58.115Z,11.30
2023-02-11T02:23:45.022Z,6.80
2023-02-11T02:26:41.920Z,9.77
2023-02-11T02:29:23.964Z,8.55
2023-02-11T02:32:19.068Z,9.88
2023-02-11T02:34:58.612Z,11.65
2023-02-11T02:37:39.859Z,10.93
2023-02-11T02:40:17.708Z,8.73
2023-02-11T02:42:53.307Z,7.50
2023-02-11T02:45:28.614Z,9.88
2023-02-11T02:48:03.580Z,8.30
2023-02-11T02:50:42.703Z,10.60
2023-02-11T02:53:22.758Z,6.30
2023-02-11T02:56:02.374Z,12.82
2023-02-11T02:58:46.964Z,11.02
2023-02-11T03:01:26.432Z,13.52
2023-02-11T03:04:06.336Z,8.82
2023-02-11T03:06:46.898Z,10.02
2023-02-11T03:09:25.893Z,12.75
2023-02-11T03:12:00.809Z,11.80
2023-02-11T03:14:35.913Z,7.68
2023-02-11T03:17:13.235Z,12.20
2023-02-11T03:19:48.441Z,8.40
2023-02-11T03:22:27.197Z,9.70
2023-02-11T03:25:01.913Z,14.55
2023-02-11T03:27:41.820Z,11.35
2023-02-11T03:30:19.709Z,8.30
2023-02-11T03:32:56.463Z,9.93
2023-02-11T03:35:34.130Z,8.73
2023-02-11T03:38:13.232Z,9.88
2023-02-11T03:40:49.371Z,10.65
2023-02-11T03:43:26.542Z,9.50
2023-02-11T03:46:02.309Z,9.25
2023-02-11T03:48:38.724Z,11.63
2023-02-11T03:51:14.483Z,5.72
2023-02-11T03:53:52.226Z,10.82
2023-02-11T03:56:28.310Z,9.88
2023-02-11T03:59:03.533Z,9.68
2023-02-11T04:01:38.260Z,11.45
2023-02-11T04:04:13.290Z,9.15
2023-02-11T04:06:47.925Z,10.07
2023-02-11T04:09:25.335Z,11.95
2023-02-11T04:11:59.778Z,8.80
2023-02-11T04:14:34.784Z,9.65
2023-02-11T04:17:09.310Z,9.43
2023-02-11T04:19:44.481Z,11.43
2023-02-11T04:22:19.089Z,11.57
2023-02-11T04:24:56.789Z,11.52
2023-02-11T04:27:31.496Z,12.45
2023-02-11T04:30:06.530Z,11.00
2023-02-11T04:32:42.183Z,10.40
2023-02-11T04:35:17.179Z,13.70
2023-02-11T04:37:51.811Z,11.68
2023-02-11T04:40:28.790Z,10.20
2023-02-11T04:43:03.752Z,10.02
2023-02-11T04:45:38.685Z,12.80
2023-02-11T04:48:13.519Z,10.80
2023-02-11T04:50:48.388Z,10.40
2023-02-11T04:53:22.740Z,15.43
2023-02-11T04:56:00.228Z,13.10
2023-02-11T04:58:37.814Z,10.23
2023-02-11T05:01:13.187Z,10.50
2023-02-11T05:03:48.216Z,13.20
2023-02-11T05:06:23.533Z,11.00
2023-02-11T05:08:58.377Z,10.98
2023-02-11T05:11:35.821Z,12.77
2023-02-11T05:14:10.336Z,10.35
2023-02-11T05:16:45.260Z,13.32
2023-02-11T05:19:19.797Z,14.68
2023-02-11T05:22:02.708Z,14.00
2023-02-11T05:24:37.946Z,14.43
2023-02-11T05:27:15.168Z,12.02
2023-02-11T05:29:49.920Z,13.98
2023-02-11T05:32:24.606Z,15.70
2023-02-11T05:34:59.338Z,13.25
2023-02-11T05:37:33.976Z,14.15
2023-02-11T05:40:08.643Z,14.35
2023-02-11T05:42:46.064Z,16.77
2023-02-11T05:45:20.931Z,15.90
2023-02-11T05:47:58.785Z,19.90
2023-02-11T05:50:33.489Z,15.70
2023-02-11T05:53:08.487Z,13.48
2023-02-11T05:55:43.434Z,13.93
2023-02-11T05:58:20.506Z,16.65
2023-02-11T06:00:55.044Z,15.55
2023-02-11T06:03:29.804Z,14.68
2023-02-11T06:06:04.429Z,15.00
2023-02-11T06:08:39.442Z,15.32
2023-02-11T06:11:14.016Z,15.18
2023-02-11T06:13:51.523Z,17.55
2023-02-11T06:16:26.211Z,16.17
2023-02-11T06:19:01.549Z,17.15
2023-02-11T06:21:43.356Z,12.65
2023-02-11T06:24:33.141Z,15.73
2023-02-11T06:27:16.406Z,17.80
2023-02-11T06:29:56.831Z,13.82
2023-02-11T06:32:47.622Z,14.00
2023-02-11T06:35:23.012Z,15.15
2023-02-11T06:37:57.627Z,18.92
2023-02-11T06:40:32.464Z,18.95
2023-02-11T06:43:06.987Z,15.95
2023-02-11T06:45:44.645Z,17.65
2023-02-11T06:48:19.631Z,16.60
2023-02-11T06:50:56.023Z,17.75
2023-02-11T06:53:30.653Z,14.93
2023-02-11T06:56:08.606Z,14.60
2023-02-11T06:58:43.336Z,15.20
2023-02-11T07:01:21.318Z,15.20
2023-02-11T07:03:55.933Z,18.30
2023-02-11T07:06:31.810Z,16.98
2023-02-11T07:09:06.378Z,16.75
2023-02-11T07:11:41.199Z,18.73
2023-02-11T07:14:15.989Z,18.70
2023-02-11T07:16:53.830Z,16.98
2023-02-11T07:19:28.669Z,23.08
2023-02-11T07:22:03.534Z,16.40
2023-02-11T07:24:38.125Z,22.95
2023-02-11T07:27:12.863Z,15.32
2023-02-11T07:29:48.633Z,19.02
2023-02-11T07:32:26.035Z,16.75
2023-02-11T07:35:00.811Z,17.48
2023-02-11T07:37:35.663Z,16.17
2023-02-11T07:40:10.468Z,19.63
2023-02-11T07:42:45.153Z,17.27
2023-02-11T07:45:19.786Z,18.52
2023-02-11T07:47:58.189Z,20.33
2023-02-11T07:50:32.781Z,20.55
2023-02-11T07:53:07.966Z,17.85
2023-02-11T07:55:44.554Z,19.63
2023-02-11T07:58:19.663Z,18.63
2023-02-11T08:00:54.221Z,21.00
2023-02-11T08:03:31.683Z,22.23
2023-02-11T08:06:08.871Z,23.05
2023-02-11T08:08:43.705Z,22.08
2023-02-11T08:11:19.402Z,19.10
2023-02-11T08:13:55.287Z,19.77
2023-02-11T08:16:31.578Z,20.50
2023-02-11T08:19:09.712Z,18.15
2023-02-11T08:21:44.664Z,19.63
2023-02-11T08:24:19.974Z,20.80
2023-02-11T08:26:54.803Z,20.40
2023-02-11T08:29:29.519Z,17.83
2023-02-11T08:32:04.090Z,18.05
2023-02-11T08:34:41.638Z,19.52
2023-02-11T08:37:16.287Z,17.20
2023-02-11T08:39:51.142Z,23.42
2023-02-11T08:42:25.658Z,15.77
2023-02-11T08:45:00.979Z,19.00
2023-02-11T08:47:35.669Z,19.60
2023-02-11T08:50:13.368Z,17.15
2023-02-11T08:52:48.026Z,16.08
2023-02-11T08:55:25.791Z,18.48
2023-02-11T08:58:00.634Z,17.83
2023-02-11T09:00:36.176Z,20.23
2023-02-11T09:03:10.695Z,16.67
2023-02-11T09:05:49.014Z,17.80
2023-02-11T09:08:23.894Z,14.18
2023-02-11T09:11:02.560Z,20.20
2023-02-11T09:13:38.601Z,18.42
2023-02-11T09:16:20.010Z,15.48
2023-02-11T09:18:56.184Z,17.55
2023-02-11T09:21:34.728Z,19.40
2023-02-11T09:24:11.561Z,21.00
2023-02-11T09:26:47.944Z,20.40
2023-02-11T09:29:23.342Z,19.67
2023-02-11T09:31:59.422Z,19.58
2023-02-11T09:34:35.954Z,20.67
2023-02-11T09:37:15.616Z,20.38
2023-02-11T09:39:50.380Z,19.05
2023-02-11T09:42:45.130Z,22.52
2023-02-11T09:45:22.311Z,19.55
2023-02-11T09:47:59.220Z,20.10
2023-02-11T09:50:35.509Z,22.75
2023-02-11T09:53:16.587Z,26.98
2023-02-11T09:55:52.400Z,22.00
2023-02-11T09:58:30.062Z,22.95
2023-02-11T10:01:09.406Z,18.70
2023-02-11T10:04:02.144Z,21.73
2023-02-11T10:06:45.699Z,20.63
2023-02-11T10:09:38.054Z,20.83
2023-02-11T10:12:46.438Z,22.00
2023-02-11T10:15:29.580Z,19.27
2023-02-11T10:18:35.425Z,20.65
2023-02-11T10:21:19.479Z,27.73
2023-02-11T10:23:56.648Z,21.20
2023-02-11T10:26:34.297Z,25.27
2023-02-11T10:29:17.403Z,27.02
2023-02-11T10:31:52.771Z,19.10
2023-02-11T10:34:28.531Z,31.90
2023-02-11T10:37:03.277Z,22.33
2023-02-11T10:39:38.578Z,19.58
2023-02-11T10:42:14.821Z,21.42
2023-02-11T10:44:54.820Z,21.90
2023-02-11T10:47:32.224Z,24.23
2023-02-11T10:50:22.126Z,30.27
2023-02-11T10:52:57.857Z,21.70
2023-02-11T10:55:33.292Z,25.70
2023-02-11T10:58:08.928Z,21.70
2023-02-11T11:00:45.930Z,24.63
2023-02-11T11:03:24.124Z,26.83
2023-02-11T11:05:59.824Z,25.73
2023-02-11T11:08:45.163Z,25.10
2023-02-11T11:11:21.518Z,24.20
2023-02-11T11:14:01.597Z,23.67
2023-02-11T11:16:38.553Z,25.98
2023-02-11T11:19:26.508Z,22.13
2023-02-11T11:22:01.987Z,26.30
2023-02-11T11:24:37.564Z,23.27
2023-02-11T11:27:12.968Z,27.00
2023-02-11T11:29:51.765Z,23.83
2023-02-11T11:32:29.191Z,24.08
2023-02-11T11:35:05.533Z,23.58
2023-02-11T11:37:41.020Z,27.55
2023-02-11T11:40:27.616Z,24.23
2023-02-11T11:43:11.811Z,21.67
2023-02-11T11:45:57.529Z,26.63
2023-02-11T11:48:36.675Z,22.55
2023-02-11T11:51:13.188Z,21.25
2023-02-11T11:53:50.874Z,21.88
2023-02-11T11:56:28.715Z,23.60
2023-02-11T11:59:07.460Z,19.83
2023-02-11T12:01:55.674Z,27.00
2023-02-11T12:04:47.195Z,25.98
2023-02-11T12:07:28.724Z,24.95
2023-02-11T12:10:12.839Z,24.48
2023-02-11T12:12:56.044Z,22.77
2023-02-11T12:15:35.146Z,24.83
2023-02-11T12:18:21.413Z,28.40
2023-02-11T12:21:02.779Z,22.90
2023-02-11T12:23:44.390Z,22.75
2023-02-11T12:26:20.475Z,25.77
2023-02-11T12:29:02.102Z,25.85
2023-02-11T12:31:45.757Z,28.55
2023-02-11T12:34:29.815Z,21.92
2023-02-11T12:37:10.323Z,27.35
2023-02-11T12:39:48.716Z,18.75
2023-02-11T12:42:46.830Z,20.13
2023-02-11T12:45:31.681Z,21.10
2023-02-11T12:48:11.716Z,18.48
2023-02-11T12:50:51.157Z,17.25
2023-02-11T12:53:39.719Z,16.90
2023-02-11T12:56:20.262Z,18.80
2023-02-11T12:58:57.889Z,18.90
2023-02-11T13:01:35.037Z,24.30
2023-02-11T13:04:11.950Z,18.42
2023-02-11T13:06:49.345Z,15.13
2023-02-11T13:09:28.784Z,18.20
2023-02-11T13:12:23.986Z,21.77
2023-02-11T13:15:01.802Z,17.38
2023-02-11T13:17:41.006Z,24.05
2023-02-11T13:20:19.565Z,22.10
2023-02-11T13:22:59.748Z,21.30
2023-02-11T13:25:41.205Z,16.95
2023-02-11T13:28:24.128Z,20.15
2023-02-11T13:31:04.435Z,28.77
2023-02-11T13:33:41.225Z,18.83
2023-02-11T13:36:34.545Z,23.77
2023-02-11T13:39:11.055Z,18.95
2023-02-11T13:41:52.727Z,23.80
2023-02-11T13:44:33.219Z,21.38
2023-02-11T13:47:09.998Z,18.45
2023-02-11T13:49:46.495Z,19.75
2023-02-11T13:52:27.173Z,20.35
2023-02-11T13:55:02.142Z,21.00
2023-02-11T13:57:42.882Z,17.15
2023-02-11T14:00:45.204Z,24.17
2023-02-11T14:03:46.803Z,22.05
2023-02-11T14:06:38.475Z,17.67
2023-02-11T14:09:15.540Z,18.10
2023-02-11T14:11:57.045Z,21.23
2023-02-11T14:14:35.155Z,19.27
2023-02-11T14:17:26.802Z,19.80
2023-02-11T14:20:05.001Z,22.70
2023-02-11T14:22:47.876Z,23.00
2023-02-11T14:25:26.687Z,20.73
2023-02-11T14:28:02.528Z,19.55
2023-02-11T14:31:00.166Z,23.15
2023-02-11T14:33:52.245Z,19.00
2023-02-11T14:36:46.252Z,20.15
2023-02-11T14:39:24.974Z,20.20
2023-02-11T14:41:59.890Z,18.55
2023-02-11T14:44:36.339Z,24.00
2023-02-11T14:47:20.420Z,22.40
2023-02-11T14:49:56.662Z,19.98
2023-02-11T14:52:33.653Z,19.13
2023-02-11T14:55:18.520Z,23.20
2023-02-11T14:57:59.523Z,22.65
2023-02-11T15:00:33.897Z,17.13
2023-02-11T15:03:10.879Z,18.08
2023-02-11T15:05:46.561Z,21.60
2023-02-11T15:08:21.240Z,22.00
2023-02-11T15:10:55.736Z,24.35
2023-02-11T15:13:32.668Z,23.98
2023-02-11T15:16:10.930Z,20.55
2023-02-11T15:18:51.092Z,19.67
2023-02-11T15:21:26.793Z,22.27
2023-02-11T15:24:04.048Z,18.17
2023-02-11T15:26:40.016Z,17.98
2023-02-11T15:29:21.580Z,17.05
2023-02-11T15:32:09.568Z,18.25
2023-02-11T15:34:47.187Z,19.88
2023-02-11T15:37:25.278Z,20.23
2023-02-11T15:40:00.756Z,19.38
2023-02-11T15:42:47.377Z,23.02
2023-02-11T15:45:32.483Z,25.35
2023-02-11T15:48:15.792Z,22.83
2023-02-11T15:50:56.635Z,24.08
2023-02-11T15:53:32.618Z,25.10
2023-02-11T15:56:09.736Z,21.30
2023-02-11T15:58:46.050Z,26.20
2023-02-11T16:01:21.020Z,30.10
2023-02-11T16:03:55.773Z,17.20
2023-02-11T16:06:39.888Z,24.30
2023-02-11T16:09:28.843Z,21.17
2023-02-11T16:12:05.182Z,24.65
2023-02-11T16:14:40.878Z,23.65
2023-02-11T16:17:17.355Z,19.10
2023-02-11T16:19:53.165Z,23.58
2023-02-11T16:22:31.626Z,22.92
2023-02-11T16:25:07.637Z,20.85
2023-02-11T16:27:44.902Z,17.48
2023-02-11T16:30:28.359Z,15.07
2023-02-11T16:33:02.919Z,13.68
2023-02-11T16:35:37.738Z,14.38
2023-02-11T16:38:15.138Z,17.10
2023-02-11T16:40:51.026Z,11.88
2023-02-11T16:43:25.841Z,12.50
2023-02-11T16:46:00.334Z,11.13
2023-02-11T16:48:34.985Z,13.98
2023-02-11T16:51:11.390Z,10.68
2023-02-11T16:53:48.829Z,12.50
2023-02-11T16:56:23.423Z,11.40
2023-02-11T16:58:58.351Z,10.77
2023-02-11T17:01:33.816Z,12.65
2023-02-11T17:04:08.498Z,10.23
2023-02-11T17:06:43.021Z,9.27
2023-02-11T17:13:03.596Z,10.30
2023-02-11T17:15:39.109Z,11.18
2023-02-11T17:18:14.995Z,11.85
2023-02-11T17:20:49.673Z,11.35
2023-02-11T17:23:24.941Z,8.75
2023-02-11T17:26:02.317Z,9.57
2023-02-11T17:28:38.740Z,9.70
2023-02-11T17:31:14.414Z,8.75
2023-02-11T17:33:49.988Z,10.98
2023-02-11T17:36:24.624Z,8.93
2023-02-11T17:38:59.956Z,9.82
2023-02-11T17:41:34.672Z,10.50
2023-02-11T17:44:12.658Z,10.60
2023-02-11T17:46:48.173Z,7.40
2023-02-11T17:49:22.561Z,9.45
2023-02-11T17:51:56.996Z,7.53
2023-02-11T17:54:32.392Z,7.88
2023-02-11T17:57:07.029Z,6.88
2023-02-11T17:59:45.749Z,10.57
2023-02-11T18:02:22.292Z,9.82
2023-02-11T18:04:59.175Z,8.05
2023-02-11T18:07:33.671Z,7.35
2023-02-11T18:10:10.495Z,8.82
2023-02-11T18:12:48.378Z,10.23
2023-02-11T18:15:25.860Z,6.57
2023-02-11T18:18:03.726Z,10.38
2023-02-11T18:20:38.838Z,10.85
2023-02-11T18:23:14.330Z,5.72
2023-02-11T18:25:51.018Z,7.32
2023-02-11T18:28:26.585Z,9.68
2023-02-11T18:31:05.710Z,8.75
2023-02-11T18:33:42.735Z,6.50
2023-02-11T18:36:19.987Z,8.70
2023-02-11T18:38:55.950Z,7.72
2023-02-11T18:41:31.400Z,6.13
2023-02-11T18:44:07.090Z,8.80
2023-02-11T18:46:45.246Z,9.30
2023-02-11T18:49:21.373Z,9.57
2023-02-11T18:51:56.523Z,9.10
2023-02-11T18:54:32.263Z,8.77
2023-02-11T18:57:08.347Z,6.25
2023-02-11T18:59:44.537Z,6.97
2023-02-11T19:02:21.689Z,6.63
2023-02-11T19:04:57.788Z,6.70
2023-02-11T19:07:34.255Z,7.88
2023-02-11T19:10:10.222Z,8.75
2023-02-11T19:12:45.343Z,7.32
2023-02-11T19:15:20.717Z,7.60
2023-02-11T19:17:58.890Z,9.15
2023-02-11T19:20:35.028Z,5.90
2023-02-11T19:23:10.932Z,7.80
2023-02-11T19:25:52.418Z,7.90
2023-02-11T19:28:30.503Z,6.10
2023-02-11T19:31:11.928Z,6.22
2023-02-11T19:33:49.211Z,9.38
2023-02-11T19:36:25.459Z,9.13
2023-02-11T19:39:04.055Z,12.73
2023-02-11T19:41:39.388Z,13.38
2023-02-11T19:44:15.067Z,9.27
2023-02-11T19:46:51.850Z,7.75
2023-02-11T19:49:30.272Z,5.80
2023-02-11T19:52:06.983Z,9.68
2023-02-11T19:54:43.484Z,6.15
2023-02-11T19:57:19.216Z,10.15
2023-02-11T19:59:56.534Z,8.20
2023-02-11T20:02:32.896Z,7.50
2023-02-11T20:05:10.353Z,5.53
2023-02-11T20:07:50.281Z,8.23
2023-02-11T20:10:25.527Z,6.07
2023-02-11T20:13:00.150Z,8.80
2023-02-11T20:15:34.566Z,6.00
2023-02-11T20:18:09.140Z,7.43
2023-02-11T20:20:46.836Z,7.57
2023-02-11T20:23:21.735Z,7.90
2023-02-11T20:25:56.121Z,6.93
2023-02-11T20:28:30.699Z,7.05
2023-02-11T20:31:06.525Z,10.70
2023-02-11T20:33:41.203Z,7.88
2023-02-11T20:36:18.715Z,11.32
2023-02-11T20:38:54.433Z,7.40
2023-02-11T20:41:30.646Z,7.53
2023-02-11T20:44:06.288Z,7.80
2023-02-11T20:46:43.727Z,6.47
2023-02-11T20:49:18.977Z,7.82
2023-02-11T20:51:58.425Z,8.20
2023-02-11T20:54:36.130Z,8.20
2023-02-11T20:57:10.704Z,8.00
2023-02-11T20:59:45.228Z,5.43
2023-02-11T21:02:21.881Z,6.70
2023-02-11T21:04:58.342Z,7.13
2023-02-11T21:07:34.634Z,7.65
2023-02-11T21:10:10.612Z,8.25
2023-02-11T21:12:47.641Z,5.57
2023-02-11T21:15:26.746Z,8.93
2023-02-11T21:18:01.050Z,6.43
2023-02-11T21:20:35.660Z,10.15
2023-02-11T21:23:13.136Z,7.13
2023-02-11T21:25:49.555Z,7.38
2023-02-11T21:28:27.958Z,8.35
2023-02-11T21:31:04.640Z,7.97
2023-02-11T21:33:40.678Z,8.13
2023-02-11T21:36:16.741Z,8.40
2023-02-11T21:38:54.204Z,8.70
2023-02-11T21:41:31.595Z,10.15
2023-02-11T21:44:06.779Z,7.43
2023-02-11T21:46:41.397Z,7.13
2023-02-11T21:49:15.781Z,6.53
2023-02-11T21:51:50.247Z,9.98
2023-02-11T21:54:33.573Z,14.60
2023-02-11T21:57:09.678Z,8.68
2023-02-11T21:59:44.865Z,11.00
2023-02-11T22:02:20.161Z,9.73
2023-02-11T22:04:56.399Z,12.30
2023-02-11T22:07:33.127Z,10.32
2023-02-11T22:10:10.718Z,13.05
2023-02-11T22:12:46.690Z,11.98
2023-02-11T22:15:23.011Z,14.00
2023-02-11T22:17:58.294Z,14.98
2023-02-11T22:20:33.728Z,16.52
2023-02-11T22:23:09.123Z,16.70
2023-02-11T22:25:47.656Z,24.15
2023-02-11T22:28:23.652Z,26.30
2023-02-11T22:30:59.589Z,23.67
2023-02-11T22:33:35.212Z,22.27
2023-02-11T22:36:14.287Z,24.02
2023-02-11T22:38:49.798Z,23.92
2023-02-11T22:41:27.633Z,24.80
2023-02-11T22:44:03.670Z,23.50
2023-02-11T22:46:39.704Z,26.15
2023-02-11T22:49:24.468Z,26.13
2023-02-11T22:52:00.591Z,26.58
2023-02-11T22:54:35.250Z,25.73
2023-02-11T22:57:12.252Z,26.13
2023-02-11T22:59:47.571Z,26.20
2023-02-11T23:02:21.967Z,27.80
2023-02-11T23:04:56.568Z,33.10
2023-02-11T23:07:31.858Z,24.83
2023-02-11T23:10:06.324Z,23.88
2023-02-11T23:12:42.739Z,27.52
2023-02-11T23:15:17.990Z,22.15
2023-02-11T23:17:53.376Z,25.73
2023-02-11T23:20:27.881Z,27.10
2023-02-11T23:23:02.338Z,27.23
2023-02-11T23:25:37.253Z,30.48
2023-02-11T23:28:14.986Z,27.00
2023-02-11T23:30:50.144Z,24.63
2023-02-11T23:33:25.113Z,28.13
2023-02-11T23:35:59.733Z,24.52
2023-02-11T23:38:34.933Z,24.63
2023-02-11T23:41:10.496Z,22.23
2023-02-11T23:43:46.968Z,23.88
2023-02-11T23:46:27.288Z,19.88
2023-02-11T23:49:02.709Z,28.90
2023-02-11T23:51:37.157Z,21.10
2023-02-11T23:54:11.545Z,22.77
2023-02-11T23:56:46.195Z,26.10
2023-02-11T23:59:23.173Z,27.55
